createdAt,value
2018-07-19T00:00:17.087Z,3.67
2018-07-19T00:02:45.499Z,3.40
2018-07-19T00:05:13.090Z,3.83
2018-07-19T00:07:40.663Z,3.97
2018-07-19T00:10:08.286Z,4.32
2018-07-19T00:12:35.865Z,4.20
2018-07-19T00:15:03.433Z,3.50
2018-07-19T00:17:31.054Z,3.20
2018-07-19T00:19:58.633Z,4.30
2018-07-19T00:22:26.211Z,4.20
2018-07-19T00:24:53.829Z,4.40
2018-07-19T00:27:22.162Z,3.53
2018-07-19T00:29:49.730Z,4.13
2018-07-19T00:32:17.364Z,4.20
2018-07-19T00:34:44.939Z,4.80
2018-07-19T00:37:12.502Z,4.17
2018-07-19T00:39:40.111Z,3.80
2018-07-19T00:42:08.450Z,4.37
2018-07-19T00:44:36.032Z,3.50
2018-07-19T00:47:04.413Z,4.20
2018-07-19T00:49:31.976Z,4.13
2018-07-19T00:51:59.540Z,3.73
2018-07-19T00:54:27.938Z,4.10
2018-07-19T00:56:55.511Z,4.47
2018-07-19T00:59:23.108Z,3.70
2018-07-19T01:01:50.754Z,4.37
2018-07-19T01:04:18.333Z,4.07
2018-07-19T01:06:45.896Z,3.83
2018-07-19T01:09:13.495Z,4.70
2018-07-19T01:11:41.837Z,4.72
2018-07-19T01:14:09.403Z,4.83
2018-07-19T01:16:37.012Z,4.43
2018-07-19T01:19:04.588Z,4.50
2018-07-19T01:21:32.157Z,4.30
2018-07-19T01:23:59.759Z,4.13
2018-07-19T01:26:27.338Z,4.23
2018-07-19T01:28:55.668Z,5.75
2018-07-19T01:31:23.279Z,4.63
2018-07-19T01:33:50.850Z,4.73
2018-07-19T01:36:18.418Z,4.33
2018-07-19T01:38:46.048Z,4.17
2018-07-19T01:41:13.631Z,5.40
2018-07-19T01:43:41.973Z,6.53
2018-07-19T01:46:09.585Z,5.43
2018-07-19T01:48:37.156Z,5.37
2018-07-19T01:51:04.734Z,5.00
2018-07-19T01:53:32.330Z,4.83
2018-07-19T01:55:59.897Z,5.23
2018-07-19T01:58:27.468Z,4.43
2018-07-19T02:00:56.640Z,4.57
2018-07-19T02:03:24.216Z,4.57
2018-07-19T02:05:51.796Z,4.87
2018-07-19T02:08:20.200Z,5.15
2018-07-19T02:10:47.743Z,4.13
2018-07-19T02:13:16.086Z,4.23
2018-07-19T02:15:43.695Z,4.10
2018-07-19T02:18:11.265Z,4.00
2018-07-19T02:20:38.837Z,4.70
2018-07-19T02:23:06.465Z,4.23
2018-07-19T02:25:34.798Z,3.97
2018-07-19T02:28:02.369Z,4.60
2018-07-19T02:30:29.987Z,4.60
2018-07-19T02:32:57.562Z,4.23
2018-07-19T02:35:25.143Z,4.50
2018-07-19T02:37:52.745Z,4.40
2018-07-19T02:40:21.087Z,4.40
2018-07-19T02:42:48.652Z,4.20
2018-07-19T02:45:16.668Z,4.33
2018-07-19T02:47:45.001Z,5.30
2018-07-19T02:50:12.566Z,4.33
2018-07-19T02:52:40.175Z,4.53
2018-07-19T02:55:08.503Z,5.20
2018-07-19T02:57:36.113Z,4.93
2018-07-19T03:00:04.481Z,4.60
2018-07-19T03:02:32.050Z,4.70
2018-07-19T03:05:00.382Z,4.77
2018-07-19T03:07:28.021Z,5.32
2018-07-19T03:09:55.594Z,5.07
2018-07-19T03:12:23.168Z,4.53
2018-07-19T03:14:50.782Z,4.73
2018-07-19T03:17:19.158Z,4.67
2018-07-19T03:19:47.485Z,4.80
2018-07-19T03:22:15.133Z,4.90
2018-07-19T03:24:42.712Z,4.57
2018-07-19T03:27:10.281Z,4.80
2018-07-19T03:29:37.946Z,5.03
2018-07-19T03:32:05.522Z,4.67
2018-07-19T03:34:33.096Z,5.70
2018-07-19T03:37:00.719Z,5.10
2018-07-19T03:39:28.293Z,4.93
2018-07-19T03:41:55.866Z,5.40
2018-07-19T03:44:23.482Z,5.17
2018-07-19T03:46:51.101Z,6.00
2018-07-19T03:49:18.739Z,5.50
2018-07-19T03:51:46.690Z,5.27
2018-07-19T03:54:14.263Z,4.70
2018-07-19T03:56:41.840Z,5.47
2018-07-19T03:59:09.448Z,4.90
2018-07-19T04:01:37.012Z,5.17
2018-07-19T04:07:43.219Z,4.60
2018-07-19T04:10:10.773Z,4.40
2018-07-19T04:12:38.328Z,4.80
2018-07-19T04:15:05.905Z,5.07
2018-07-19T04:17:33.466Z,4.67
2018-07-19T04:20:01.028Z,4.87
2018-07-19T04:22:28.624Z,4.90
2018-07-19T04:24:56.184Z,5.07
2018-07-19T04:27:23.738Z,5.50
2018-07-19T04:29:51.347Z,5.10
2018-07-19T04:32:18.978Z,4.70
2018-07-19T04:34:46.473Z,5.50
2018-07-19T04:37:14.067Z,5.33
2018-07-19T04:39:41.626Z,4.93
2018-07-19T04:42:09.199Z,4.43
2018-07-19T04:44:36.795Z,4.73
2018-07-19T04:47:05.166Z,4.47
2018-07-19T04:49:33.481Z,4.40
2018-07-19T04:52:01.077Z,4.70
2018-07-19T04:54:28.670Z,4.70
2018-07-19T04:56:56.200Z,5.10
2018-07-19T04:59:23.786Z,4.93
2018-07-19T05:01:51.464Z,5.70
2018-07-19T05:04:18.891Z,4.77
2018-07-19T05:06:46.500Z,5.78
2018-07-19T05:09:15.172Z,5.00
2018-07-19T05:11:43.514Z,4.67
2018-07-19T05:14:11.221Z,5.00
2018-07-19T05:16:38.709Z,4.70
2018-07-19T05:19:06.257Z,5.03
2018-07-19T05:21:35.190Z,5.10
2018-07-19T05:24:02.743Z,5.30
2018-07-19T05:26:30.305Z,6.07
2018-07-19T05:28:57.934Z,5.20
2018-07-19T05:31:25.483Z,4.90
2018-07-19T05:33:53.036Z,5.33
2018-07-19T05:36:21.417Z,5.10
2018-07-19T05:38:49.734Z,5.47
2018-07-19T05:41:17.701Z,4.93
2018-07-19T05:43:45.300Z,5.57
2018-07-19T05:46:12.856Z,5.23
2018-07-19T05:48:40.407Z,5.40
2018-07-19T05:51:07.998Z,5.57
2018-07-19T05:53:36.318Z,4.90
2018-07-19T05:56:03.865Z,5.40
2018-07-19T05:58:31.471Z,5.47
2018-07-19T06:00:59.019Z,5.37
2018-07-19T06:03:26.563Z,5.23
2018-07-19T06:05:54.170Z,5.13
2018-07-19T06:08:21.721Z,4.90
2018-07-19T06:10:49.307Z,5.45
2018-07-19T06:13:17.689Z,5.17
2018-07-19T06:15:46.080Z,5.17
2018-07-19T06:18:13.620Z,6.22
2018-07-19T06:20:41.991Z,5.78
2018-07-19T06:23:09.545Z,5.43
2018-07-19T06:25:37.099Z,4.73
2018-07-19T06:28:04.704Z,4.17
2018-07-19T06:30:32.253Z,4.40
2018-07-19T06:33:00.568Z,4.83
2018-07-19T06:35:28.648Z,4.47
2018-07-19T06:37:59.461Z,4.30
2018-07-19T06:40:27.665Z,4.63
2018-07-19T06:42:55.347Z,4.20
2018-07-19T06:45:22.904Z,4.00
2018-07-19T06:47:50.470Z,3.70
2018-07-19T06:50:18.099Z,4.22
2018-07-19T06:52:45.658Z,3.50
2018-07-19T06:55:13.208Z,3.87
2018-07-19T06:57:41.720Z,3.60
2018-07-19T07:00:09.292Z,3.63
2018-07-19T07:02:36.859Z,4.27
2018-07-19T07:05:04.517Z,4.00
2018-07-19T07:07:32.084Z,4.07
2018-07-19T07:09:59.646Z,3.60
2018-07-19T07:12:27.297Z,4.10
2018-07-19T07:14:54.832Z,4.00
2018-07-19T07:17:22.390Z,3.80
2018-07-19T07:19:50.040Z,3.77
2018-07-19T07:22:17.582Z,3.93
2018-07-19T07:24:45.902Z,3.63
2018-07-19T07:27:13.862Z,3.43
2018-07-19T07:29:41.479Z,4.07
2018-07-19T07:32:09.022Z,3.47
2018-07-19T07:34:36.662Z,4.03
2018-07-19T07:37:04.278Z,4.10
2018-07-19T07:39:31.818Z,4.30
2018-07-19T07:41:59.882Z,4.20
2018-07-19T07:44:27.470Z,3.80
2018-07-19T07:46:55.032Z,4.00
2018-07-19T07:49:24.094Z,4.03
2018-07-19T07:51:51.648Z,4.17
2018-07-19T07:54:19.269Z,3.50
2018-07-19T07:56:46.849Z,3.90
2018-07-19T07:59:14.436Z,3.80
2018-07-19T08:01:41.991Z,3.70
2018-07-19T08:04:09.742Z,3.90
2018-07-19T08:06:37.338Z,3.77
2018-07-19T08:09:04.858Z,3.80
2018-07-19T08:11:32.552Z,4.07
2018-07-19T08:14:00.168Z,3.70
2018-07-19T08:16:27.743Z,3.67
2018-07-19T08:18:55.351Z,3.47
2018-07-19T08:21:22.946Z,4.20
2018-07-19T08:23:50.521Z,3.63
2018-07-19T08:26:18.734Z,3.80
2018-07-19T08:28:46.323Z,3.37
2018-07-19T08:31:13.922Z,3.33
2018-07-19T08:33:42.195Z,3.70
2018-07-19T08:36:09.822Z,3.65
2018-07-19T08:38:37.365Z,4.20
2018-07-19T08:41:07.026Z,3.50
2018-07-19T08:43:33.488Z,3.73
2018-07-19T08:46:01.088Z,3.20
2018-07-19T08:48:29.057Z,3.72
2018-07-19T08:50:56.686Z,3.23
2018-07-19T08:53:24.238Z,3.53
2018-07-19T08:55:53.091Z,3.43
2018-07-19T08:58:20.259Z,3.93
2018-07-19T09:00:47.773Z,3.67
2018-07-19T09:03:26.733Z,3.73
2018-07-19T09:09:03.651Z,3.30
2018-07-19T09:11:42.862Z,3.30
2018-07-19T09:17:53.788Z,2.60
2018-07-19T09:20:23.817Z,3.30
2018-07-19T09:22:51.383Z,3.10
2018-07-19T09:25:18.994Z,2.83
2018-07-19T09:27:46.621Z,2.77
2018-07-19T09:30:14.178Z,2.43
2018-07-19T09:32:41.841Z,2.20
2018-07-19T09:35:10.131Z,2.50
2018-07-19T09:37:38.615Z,2.27
2018-07-19T09:40:06.260Z,2.70
2018-07-19T09:42:33.830Z,2.50
2018-07-19T09:45:01.401Z,1.97
2018-07-19T09:47:29.005Z,2.10
2018-07-19T09:49:57.330Z,1.83
2018-07-19T09:52:24.900Z,2.00
2018-07-19T09:54:52.517Z,1.97
2018-07-19T09:57:20.070Z,2.10
2018-07-19T09:59:48.413Z,2.17
2018-07-19T10:02:16.103Z,2.17
2018-07-19T10:07:11.312Z,2.25
2018-07-19T10:09:39.256Z,2.10
2018-07-19T10:12:06.839Z,1.77
2018-07-19T10:14:34.432Z,2.37
2018-07-19T10:17:21.344Z,2.10
2018-07-19T10:19:53.314Z,1.97
2018-07-19T10:22:42.615Z,2.73
2018-07-19T10:24:59.775Z,2.10
2018-07-19T10:27:28.745Z,2.30
2018-07-19T10:29:55.051Z,2.30
2018-07-19T10:32:22.722Z,2.07
2018-07-19T10:34:52.904Z,2.00
2018-07-19T10:37:21.232Z,2.63
2018-07-19T10:39:48.805Z,2.07
2018-07-19T10:42:16.410Z,2.27
2018-07-19T10:44:43.973Z,2.35
2018-07-19T10:47:12.294Z,2.53
2018-07-19T10:49:39.948Z,2.20
2018-07-19T10:52:07.510Z,2.27
2018-07-19T10:54:35.066Z,2.57
2018-07-19T10:57:02.663Z,1.97
2018-07-19T10:59:30.213Z,3.40
2018-07-19T11:01:57.777Z,2.43
2018-07-19T11:04:25.411Z,2.57
2018-07-19T11:06:52.968Z,2.40
2018-07-19T11:09:20.561Z,2.50
2018-07-19T11:11:49.025Z,2.50
2018-07-19T11:14:16.583Z,2.67
2018-07-19T11:16:44.164Z,2.57
2018-07-19T11:19:11.763Z,2.40
2018-07-19T11:21:40.084Z,2.60
2018-07-19T11:24:07.634Z,1.97
2018-07-19T11:26:35.275Z,2.07
2018-07-19T11:29:02.824Z,2.17
2018-07-19T11:31:31.141Z,2.20
2018-07-19T11:33:59.245Z,2.47
2018-07-19T11:36:26.833Z,2.40
2018-07-19T11:38:55.169Z,2.20
2018-07-19T11:41:22.774Z,2.20
2018-07-19T11:43:51.088Z,2.23
2018-07-19T11:46:18.657Z,2.57
2018-07-19T11:48:46.255Z,2.77
2018-07-19T11:51:13.877Z,2.43
2018-07-19T11:53:41.477Z,2.58
2018-07-19T11:56:09.421Z,2.30
2018-07-19T11:58:36.979Z,2.40
2018-07-19T12:01:04.518Z,2.50
2018-07-19T12:03:32.109Z,2.60
2018-07-19T12:06:00.926Z,2.70
2018-07-19T12:08:28.441Z,2.40
2018-07-19T12:10:56.055Z,2.30
2018-07-19T12:13:23.621Z,2.70
2018-07-19T12:15:51.935Z,2.67
2018-07-19T12:18:19.555Z,2.10
2018-07-19T12:20:47.111Z,2.23
2018-07-19T12:23:14.752Z,2.60
2018-07-19T12:25:42.805Z,2.60
2018-07-19T12:28:10.356Z,2.50
2018-07-19T12:30:37.917Z,2.63
2018-07-19T12:33:05.977Z,2.40
2018-07-19T12:35:33.521Z,2.33
2018-07-19T12:38:01.842Z,2.23
2018-07-19T12:40:29.662Z,2.50
2018-07-19T12:42:57.136Z,2.73
2018-07-19T12:45:24.692Z,2.40
2018-07-19T12:47:52.290Z,2.40
2018-07-19T12:50:19.833Z,2.40
2018-07-19T12:52:47.387Z,2.60
2018-07-19T12:55:15.120Z,2.63
2018-07-19T12:57:42.668Z,2.17
2018-07-19T13:00:10.275Z,2.27
2018-07-19T13:02:38.618Z,2.50
2018-07-19T13:05:06.181Z,2.40
2018-07-19T13:07:33.999Z,2.30
2018-07-19T13:10:01.534Z,2.40
2018-07-19T13:12:29.090Z,2.40
2018-07-19T13:14:56.642Z,2.20
2018-07-19T13:17:24.980Z,2.47
2018-07-19T13:19:52.547Z,2.47
2018-07-19T13:22:20.100Z,2.47
2018-07-19T13:24:47.716Z,2.03
2018-07-19T13:27:15.282Z,2.50
2018-07-19T13:29:42.836Z,2.17
2018-07-19T13:32:10.516Z,2.70
2018-07-19T13:34:38.094Z,2.30
2018-07-19T13:37:05.651Z,2.40
2018-07-19T13:39:33.255Z,2.33
2018-07-19T13:42:00.865Z,2.70
2018-07-19T13:44:29.144Z,2.27
2018-07-19T13:46:56.740Z,2.20
2018-07-19T13:49:24.303Z,2.30
2018-07-19T13:51:51.863Z,2.27
2018-07-19T13:54:19.536Z,2.67
2018-07-19T13:56:47.088Z,2.27
2018-07-19T13:59:14.695Z,2.30
2018-07-19T14:01:42.253Z,2.50
2018-07-19T14:04:09.805Z,2.33
2018-07-19T14:06:38.135Z,2.17
2018-07-19T14:09:05.728Z,2.40
2018-07-19T14:11:33.284Z,2.40
2018-07-19T14:14:00.836Z,2.30
2018-07-19T14:16:28.515Z,2.70
2018-07-19T14:18:56.067Z,2.60
2018-07-19T14:21:23.630Z,2.72
2018-07-19T14:23:51.243Z,2.37
2018-07-19T14:26:18.833Z,2.50
2018-07-19T14:28:46.400Z,2.23
2018-07-19T14:31:14.533Z,2.35
2018-07-19T14:33:42.105Z,2.35
2018-07-19T14:36:09.654Z,2.37
2018-07-19T14:38:37.266Z,2.43
2018-07-19T14:41:04.843Z,2.47
2018-07-19T14:43:33.166Z,2.80
2018-07-19T14:46:00.759Z,2.17
2018-07-19T14:48:28.363Z,2.23
2018-07-19T14:50:56.705Z,2.67
2018-07-19T14:53:24.323Z,2.63
2018-07-19T14:55:51.909Z,2.67
2018-07-19T14:58:19.485Z,2.33
2018-07-19T15:00:47.097Z,2.50
2018-07-19T15:03:14.669Z,2.57
2018-07-19T15:05:42.244Z,2.37
2018-07-19T15:08:09.855Z,2.50
2018-07-19T15:10:37.452Z,2.43
2018-07-19T15:13:05.005Z,2.43
2018-07-19T15:15:32.627Z,2.70
2018-07-19T15:18:00.238Z,2.60
2018-07-19T15:20:28.548Z,2.30
2018-07-19T15:22:56.164Z,2.43
2018-07-19T15:25:23.742Z,2.80
2018-07-19T15:27:51.374Z,2.60
2018-07-19T15:30:19.017Z,2.37
2018-07-19T15:32:46.586Z,2.60
2018-07-19T15:35:14.154Z,2.40
2018-07-19T15:37:42.573Z,2.50
2018-07-19T15:40:10.165Z,2.40
2018-07-19T15:42:37.863Z,2.47
2018-07-19T15:45:06.264Z,10.10
2018-07-19T15:47:36.254Z,2.53
2018-07-19T15:50:04.206Z,2.00
2018-07-19T15:52:32.872Z,2.50
2018-07-19T15:55:04.206Z,2.20
2018-07-19T15:57:31.763Z,2.30
2018-07-19T15:59:59.513Z,2.47
2018-07-19T16:02:27.063Z,2.30
2018-07-19T16:04:55.389Z,2.27
2018-07-19T16:07:23.352Z,2.40
2018-07-19T16:09:50.901Z,2.10
2018-07-19T16:12:18.453Z,2.10
2018-07-19T16:14:46.051Z,2.17
2018-07-19T16:17:13.606Z,2.23
2018-07-19T16:19:41.167Z,2.28
2018-07-19T16:22:08.773Z,2.10
2018-07-19T16:24:37.089Z,2.20
2018-07-19T16:27:04.637Z,2.27
2018-07-19T16:29:32.635Z,1.87
2018-07-19T16:32:00.198Z,2.53
2018-07-19T16:34:27.753Z,1.90
2018-07-19T16:36:55.395Z,2.37
2018-07-19T16:39:22.949Z,2.40
2018-07-19T16:41:50.502Z,2.30
2018-07-19T16:44:18.504Z,2.33
2018-07-19T16:46:46.076Z,2.40
2018-07-19T16:49:13.627Z,2.37
2018-07-19T16:51:41.225Z,2.30
2018-07-19T16:54:08.777Z,2.27
2018-07-19T16:56:36.338Z,2.30
2018-07-19T16:59:04.278Z,2.17
2018-07-19T17:01:31.827Z,2.20
2018-07-19T17:03:59.378Z,2.00
2018-07-19T17:06:26.974Z,2.17
2018-07-19T17:08:54.520Z,2.07
2018-07-19T17:11:22.070Z,2.43
2018-07-19T17:13:49.700Z,2.50
2018-07-19T17:16:18.019Z,2.37
2018-07-19T17:18:45.570Z,2.20
2018-07-19T17:21:13.177Z,2.83
2018-07-19T17:23:40.727Z,2.33
2018-07-19T17:26:08.284Z,2.20
2018-07-19T17:28:35.921Z,2.47
2018-07-19T17:31:03.469Z,2.37
2018-07-19T17:33:31.012Z,2.20
2018-07-19T17:35:59.405Z,2.33
2018-07-19T17:38:26.952Z,2.20
2018-07-19T17:40:54.506Z,2.30
2018-07-19T17:43:22.868Z,2.30
2018-07-19T17:45:50.413Z,2.23
2018-07-19T17:48:17.961Z,2.30
2018-07-19T17:50:45.581Z,2.27
2018-07-19T17:53:13.145Z,2.43
2018-07-19T17:55:40.699Z,2.20
2018-07-19T17:58:08.309Z,2.57
2018-07-19T18:00:35.869Z,1.90
2018-07-19T18:03:03.426Z,2.53
2018-07-19T18:05:31.021Z,2.27
2018-07-19T18:07:58.574Z,2.60
2018-07-19T18:10:26.131Z,2.60
2018-07-19T18:12:53.742Z,2.70
2018-07-19T18:15:21.294Z,2.53
2018-07-19T18:17:48.847Z,2.70
2018-07-19T18:20:17.259Z,2.50
2018-07-19T18:22:45.531Z,2.37
2018-07-19T18:25:13.079Z,2.60
2018-07-19T18:27:40.739Z,2.20
2018-07-19T18:30:08.284Z,2.70
2018-07-19T18:32:36.598Z,2.30
2018-07-19T18:35:04.200Z,2.50
2018-07-19T18:37:31.755Z,2.67
2018-07-19T18:39:59.314Z,2.70
2018-07-19T18:42:28.630Z,2.77
2018-07-19T18:44:56.183Z,2.65
2018-07-19T18:47:23.729Z,2.77
2018-07-19T18:49:51.365Z,2.67
2018-07-19T18:52:18.910Z,3.43
2018-07-19T18:54:46.459Z,2.40
2018-07-19T18:57:14.047Z,2.60
2018-07-19T18:59:41.605Z,2.63
2018-07-19T19:02:09.172Z,3.40
2018-07-19T19:04:36.763Z,3.70
2018-07-19T19:07:04.318Z,2.70
2018-07-19T19:09:31.870Z,2.80
2018-07-19T19:12:00.042Z,3.03
2018-07-19T19:14:27.595Z,4.07
2018-07-19T19:16:55.158Z,4.87
2018-07-19T19:19:22.777Z,3.47
2018-07-19T19:21:51.114Z,3.60
2018-07-19T19:24:18.645Z,4.50
2018-07-19T19:26:46.253Z,4.80
2018-07-19T19:29:13.804Z,4.03
2018-07-19T19:31:41.359Z,4.40
2018-07-19T19:34:09.511Z,3.63
2018-07-19T19:36:37.065Z,3.28
2018-07-19T19:39:04.627Z,3.20
2018-07-19T19:41:32.814Z,2.90
2018-07-19T19:44:00.362Z,3.40
2018-07-19T19:46:27.915Z,3.23
2018-07-19T19:48:55.514Z,3.27
2018-07-19T19:51:23.071Z,2.97
2018-07-19T19:53:50.629Z,3.13
2018-07-19T19:56:18.230Z,2.83
2018-07-19T19:58:45.821Z,3.50
2018-07-19T20:01:13.333Z,3.20
2018-07-19T20:03:40.940Z,3.20
2018-07-19T20:06:08.489Z,3.33
2018-07-19T20:08:36.051Z,3.17
2018-07-19T20:11:03.660Z,3.30
2018-07-19T20:13:31.234Z,3.13
2018-07-19T20:15:58.788Z,3.33
2018-07-19T20:18:26.387Z,3.65
2018-07-19T20:20:54.708Z,3.90
2018-07-19T20:23:22.614Z,4.10
2018-07-19T20:25:50.671Z,5.20
2018-07-19T20:28:18.239Z,5.10
2018-07-19T20:30:45.795Z,6.05
2018-07-19T20:33:13.746Z,5.60
2018-07-19T20:35:41.303Z,5.03
2018-07-19T20:38:08.858Z,4.73
2018-07-19T20:40:36.477Z,4.67
2018-07-19T20:43:04.101Z,3.80
2018-07-19T20:50:46.362Z,3.77
2018-07-19T20:53:13.951Z,3.77
2018-07-19T20:58:12.210Z,3.97
2018-07-19T21:00:44.782Z,3.57
2018-07-19T21:03:26.434Z,3.70
2018-07-19T21:11:16.648Z,3.43
2018-07-19T21:13:44.964Z,3.50
2018-07-19T21:16:12.531Z,3.77
2018-07-19T21:18:40.126Z,3.83
2018-07-19T21:21:07.678Z,3.73
2018-07-19T21:23:35.231Z,3.90
2018-07-19T21:26:02.880Z,3.73
2018-07-19T21:28:31.161Z,3.57
2018-07-19T21:30:58.715Z,3.90
2018-07-19T21:33:27.260Z,3.50
2018-07-19T21:35:54.812Z,3.60
2018-07-19T21:38:23.131Z,3.20
2018-07-19T21:40:50.725Z,4.10
2018-07-19T21:43:18.276Z,4.03
2018-07-19T21:45:45.832Z,4.55
2018-07-19T21:48:13.472Z,4.73
2018-07-19T21:50:41.027Z,4.53
2018-07-19T21:53:08.584Z,4.60
2018-07-19T21:55:36.205Z,4.47
2018-07-19T21:58:03.759Z,4.33
2018-07-19T22:00:31.306Z,4.27
2018-07-19T22:02:59.456Z,4.17
2018-07-19T22:05:27.012Z,4.00
2018-07-19T22:07:54.559Z,3.97
2018-07-19T22:10:22.297Z,4.27
2018-07-19T22:12:50.635Z,4.00
2018-07-19T22:15:18.175Z,4.37
2018-07-19T22:17:45.786Z,4.40
2018-07-19T22:20:13.313Z,4.30
2018-07-19T22:22:40.871Z,4.10
2018-07-19T22:25:08.506Z,4.77
2018-07-19T22:27:36.057Z,4.23
2018-07-19T22:30:03.613Z,4.50
2018-07-19T22:32:31.969Z,4.37
2018-07-19T22:34:59.521Z,4.80
2018-07-19T22:37:27.075Z,4.80
2018-07-19T22:39:54.662Z,5.47
2018-07-19T22:42:22.981Z,4.97
2018-07-19T22:44:50.530Z,4.73
2018-07-19T22:47:18.113Z,4.87
2018-07-19T22:49:45.662Z,5.03
2018-07-19T22:52:13.214Z,5.23
2018-07-19T22:54:40.797Z,4.90
2018-07-19T22:57:08.345Z,4.87
2018-07-19T22:59:35.892Z,4.77
2018-07-19T23:02:03.513Z,5.00
2018-07-19T23:04:31.024Z,4.90
2018-07-19T23:06:58.568Z,4.97
2018-07-19T23:09:26.163Z,5.40
2018-07-19T23:11:53.710Z,5.60
2018-07-19T23:14:21.263Z,5.00
2018-07-19T23:16:49.191Z,5.37
2018-07-19T23:19:16.750Z,5.37
2018-07-19T23:21:44.300Z,5.10
2018-07-19T23:24:11.917Z,5.13
2018-07-19T23:26:39.466Z,5.17
2018-07-19T23:29:07.018Z,4.60
2018-07-19T23:31:35.387Z,5.00
2018-07-19T23:34:03.718Z,5.30
2018-07-19T23:36:31.258Z,5.40
2018-07-19T23:38:58.850Z,5.23
2018-07-19T23:41:26.399Z,5.37
2018-07-19T23:43:53.947Z,5.13
2018-07-19T23:46:21.533Z,5.40
2018-07-19T23:48:49.088Z,5.60
2018-07-19T23:51:16.640Z,5.07
2018-07-19T23:53:44.224Z,5.70
2018-07-19T23:56:11.776Z,5.83
2018-07-19T23:58:39.331Z,5.82
